Time;durP1;ratioP1;P1;durP2;ratioP2;P2;SDS_P1;SDS_P2;PMS_P1;PMS_P2;Temp;Humidity;BMP_temperature;BMP_pressure;BME280_temperature;BME280_humidity;BME280_pressure;Samples;Min_cycle;Max_cycle;Signal;HPM_P1;HPM_P2
2024/03/10 00:00:47;;;;;;;41.13;24.30;;;;;;;;;;5016266;28;20219;-66
2024/03/10 00:03:13;;;;;;;40.22;23.75;;;;;;;;;;5034760;28;20061;-66
2024/03/10 00:05:39;;;;;;;41.83;23.05;;;;;;;;;;5004601;28;20132;-66
2024/03/10 00:08:06;;;;;;;43.22;25.17;;;;;;;;;;5018169;28;20057;-66
2024/03/10 00:10:37;;;;;;;37.75;23.38;;;;;;;;;;5020329;28;20041;-66
2024/03/10 00:13:03;;;;;;;39.30;24.00;;;;;;;;;;5017312;28;20486;-66
2024/03/10 00:15:30;;;;;;;37.22;23.25;;;;;;;;;;5018686;28;20111;-66
2024/03/10 00:17:57;;;;;;;38.80;23.50;;;;;;;;;;5018802;28;20089;-66
2024/03/10 00:20:23;;;;;;;41.80;24.30;;;;;;;;;;5018205;28;20103;-66
2024/03/10 00:22:49;;;;;;;37.97;24.27;;;;;;;;;;5019556;28;20049;-66
2024/03/10 00:25:15;;;;;;;39.67;23.45;;;;;;;;;;5023966;28;21701;-66
2024/03/10 00:27:42;;;;;;;39.53;24.55;;;;;;;;;;5021391;28;20064;-66
2024/03/10 00:30:09;;;;;;;40.25;24.27;;;;;;;;;;5019802;28;20077;-66
2024/03/10 00:32:36;;;;;;;38.42;24.48;;;;;;;;;;5019880;28;20143;-66
2024/03/10 00:35:05;;;;;;;38.88;23.77;;;;;;;;;;5018311;28;20115;-66
2024/03/10 00:37:31;;;;;;;40.85;23.92;;;;;;;;;;5020887;28;20125;-66
2024/03/10 00:39:58;;;;;;;39.25;24.75;;;;;;;;;;5018640;28;21784;-66
2024/03/10 00:42:24;;;;;;;39.92;23.92;;;;;;;;;;5019503;28;20058;-66
2024/03/10 00:44:50;;;;;;;41.13;23.85;;;;;;;;;;5020916;28;20046;-66
2024/03/10 00:47:17;;;;;;;39.22;23.90;;;;;;;;;;5029800;28;20121;-66
2024/03/10 00:49:43;;;;;;;37.10;23.60;;;;;;;;;;5024047;28;20041;-66
2024/03/10 00:52:09;;;;;;;43.45;24.52;;;;;;;;;;5021136;28;20052;-67
2024/03/10 00:54:37;;;;;;;39.58;24.00;;;;;;;;;;5025126;28;20051;-66
2024/03/10 00:57:04;;;;;;;39.40;24.80;;;;;;;;;;5024170;28;20072;-66
2024/03/10 00:59:30;;;;;;;42.10;24.67;;;;;;;;;;5023019;28;20048;-66
2024/03/10 01:01:56;;;;;;;42.45;23.58;;;;;;;;;;5023637;28;20038;-66
2024/03/10 01:04:23;;;;;;;40.40;25.00;;;;;;;;;;5020410;28;20060;-66
2024/03/10 01:06:49;;;;;;;40.28;24.15;;;;;;;;;;5019827;28;20092;-66
2024/03/10 01:09:18;;;;;;;43.42;25.05;;;;;;;;;;5015339;28;20123;-66
2024/03/10 01:11:47;;;;;;;38.60;23.02;;;;;;;;;;5014666;28;20159;-67
2024/03/10 01:14:13;;;;;;;38.60;23.60;;;;;;;;;;5016299;28;20057;-67
2024/03/10 01:16:40;;;;;;;37.97;23.63;;;;;;;;;;5018572;28;20112;-67
2024/03/10 01:19:13;;;;;;;42.35;25.02;;;;;;;;;;5019456;28;20152;-66
2024/03/10 01:21:39;;;;;;;40.65;25.23;;;;;;;;;;5024918;28;20045;-66
2024/03/10 01:24:06;;;;;;;37.85;23.05;;;;;;;;;;5023330;28;20049;-66
2024/03/10 01:26:32;;;;;;;42.28;24.63;;;;;;;;;;5023522;28;20056;-66
2024/03/10 01:28:58;;;;;;;38.58;23.17;;;;;;;;;;5024233;28;20171;-66
2024/03/10 01:31:26;;;;;;;39.45;24.67;;;;;;;;;;5027365;28;20053;-66
2024/03/10 01:33:52;;;;;;;36.38;22.92;;;;;;;;;;5033023;28;21160;-66
2024/03/10 01:36:18;;;;;;;39.35;23.17;;;;;;;;;;5035109;28;20045;-66
2024/03/10 01:38:44;;;;;;;38.60;23.83;;;;;;;;;;5035119;28;20132;-66
2024/03/10 01:41:12;;;;;;;40.92;24.05;;;;;;;;;;5037058;28;20523;-66
2024/03/10 01:43:40;;;;;;;40.60;24.77;;;;;;;;;;5032119;28;20079;-66
2024/03/10 01:46:08;;;;;;;39.55;23.65;;;;;;;;;;5034114;28;20099;-66
2024/03/10 01:48:37;;;;;;;35.00;21.70;;;;;;;;;;5036130;28;20102;-66
2024/03/10 01:51:04;;;;;;;38.03;23.73;;;;;;;;;;5018794;28;20042;-66
2024/03/10 01:53:31;;;;;;;36.20;23.67;;;;;;;;;;5026431;28;20184;-66
2024/03/10 01:55:59;;;;;;;38.13;24.40;;;;;;;;;;5018551;28;20467;-66
2024/03/10 01:58:27;;;;;;;35.88;23.38;;;;;;;;;;5019355;28;20049;-66
2024/03/10 02:00:53;;;;;;;38.85;22.95;;;;;;;;;;5019616;28;20056;-66
2024/03/10 02:03:20;;;;;;;38.97;24.73;;;;;;;;;;5032475;28;20496;-66
2024/03/10 02:05:47;;;;;;;38.83;23.70;;;;;;;;;;5032295;28;20041;-66
2024/03/10 02:08:14;;;;;;;38.90;24.00;;;;;;;;;;5029276;28;20795;-66
2024/03/10 02:10:46;;;;;;;35.42;22.50;;;;;;;;;;5038585;28;20037;-66
2024/03/10 02:13:13;;;;;;;41.25;24.10;;;;;;;;;;5026878;28;20049;-66
2024/03/10 02:15:40;;;;;;;38.92;23.30;;;;;;;;;;5031984;28;20045;-66
2024/03/10 02:18:06;;;;;;;37.95;23.65;;;;;;;;;;5019536;28;20485;-66
2024/03/10 02:20:32;;;;;;;39.83;23.95;;;;;;;;;;5019606;28;20034;-66
2024/03/10 02:22:59;;;;;;;37.70;24.02;;;;;;;;;;5024605;28;20073;-66
2024/03/10 02:25:34;;;;;;;35.58;22.05;;;;;;;;;;5018783;28;21498;-66
2024/03/10 02:28:09;;;;;;;38.20;22.35;;;;;;;;;;5023369;28;20058;-66
2024/03/10 02:30:43;;;;;;;35.15;22.55;;;;;;;;;;5023258;28;20085;-66
2024/03/10 02:47:12;;;;;;;39.88;23.23;;;;;;;;;;5016599;28;20045;-66
2024/03/10 02:47:15;;;;;;;34.90;22.35;;;;;;;;;;5023655;28;20045;-66
2024/03/10 02:49:42;;;;;;;37.30;23.73;;;;;;;;;;5018562;28;20046;-66
2024/03/10 02:52:08;;;;;;;34.17;21.05;;;;;;;;;;5017491;28;20044;-66
2024/03/10 02:54:37;;;;;;;37.15;21.58;;;;;;;;;;5024622;28;20045;-66
2024/03/10 02:57:03;;;;;;;38.50;23.63;;;;;;;;;;5026810;28;20041;-65
2024/03/10 02:59:30;;;;;;;36.13;22.17;;;;;;;;;;5021597;28;20172;-66
2024/03/10 03:01:56;;;;;;;35.45;22.58;;;;;;;;;;5023678;28;20118;-66
2024/03/10 03:04:26;;;;;;;37.05;22.48;;;;;;;;;;5020710;28;20041;-66
2024/03/10 03:06:53;;;;;;;36.70;22.58;;;;;;;;;;5023298;28;20362;-66
2024/03/10 03:09:20;;;;;;;38.92;24.13;;;;;;;;;;5019551;28;20041;-66
2024/03/10 03:11:47;;;;;;;35.92;22.20;;;;;;;;;;5018330;28;20343;-66
2024/03/10 03:14:13;;;;;;;39.25;23.33;;;;;;;;;;5019666;28;20037;-66
2024/03/10 03:16:40;;;;;;;39.83;23.92;;;;;;;;;;5018182;28;20413;-66
2024/03/10 03:19:08;;;;;;;36.97;22.55;;;;;;;;;;5018628;28;20523;-66
2024/03/10 03:21:36;;;;;;;33.80;21.73;;;;;;;;;;5027223;28;20841;-66
2024/03/10 03:24:07;;;;;;;35.60;21.63;;;;;;;;;;5021860;28;20046;-66
2024/03/10 03:26:34;;;;;;;37.22;23.35;;;;;;;;;;5020628;28;20046;-66
2024/03/10 03:29:01;;;;;;;38.20;23.73;;;;;;;;;;5023867;28;20470;-66
2024/03/10 03:31:27;;;;;;;37.15;23.38;;;;;;;;;;5022859;28;20465;-66
2024/03/10 03:33:53;;;;;;;37.80;24.05;;;;;;;;;;5022636;28;20041;-66
2024/03/10 03:36:20;;;;;;;37.17;23.50;;;;;;;;;;5020288;28;20065;-66
2024/03/10 03:38:46;;;;;;;39.33;23.90;;;;;;;;;;5024828;28;20093;-66
2024/03/10 03:41:12;;;;;;;43.33;26.33;;;;;;;;;;5026215;28;20381;-66
2024/03/10 03:43:38;;;;;;;38.17;23.17;;;;;;;;;;5028498;28;20040;-66
2024/03/10 03:46:04;;;;;;;38.65;23.15;;;;;;;;;;5023597;28;20045;-66
2024/03/10 03:48:32;;;;;;;42.10;25.25;;;;;;;;;;5022546;28;20141;-66
2024/03/10 03:50:58;;;;;;;43.67;26.23;;;;;;;;;;5023796;28;20102;-66
2024/03/10 03:53:24;;;;;;;39.78;25.45;;;;;;;;;;5027631;28;20128;-66
2024/03/10 03:55:50;;;;;;;43.97;25.45;;;;;;;;;;5025661;28;20490;-66
2024/03/10 03:58:17;;;;;;;40.53;24.90;;;;;;;;;;5028104;28;20048;-66
2024/03/10 04:00:43;;;;;;;42.22;26.00;;;;;;;;;;5024433;28;20063;-66
2024/03/10 04:03:09;;;;;;;39.70;25.35;;;;;;;;;;5024891;28;20044;-66
2024/03/10 04:05:36;;;;;;;42.28;25.45;;;;;;;;;;5028318;28;20091;-66
2024/03/10 04:08:02;;;;;;;46.75;27.45;;;;;;;;;;5025595;28;20033;-65
2024/03/10 04:10:28;;;;;;;44.20;25.98;;;;;;;;;;5022575;28;20051;-65
2024/03/10 04:12:54;;;;;;;45.20;26.63;;;;;;;;;;5023978;28;20068;-65
2024/03/10 04:15:21;;;;;;;46.83;28.00;;;;;;;;;;5027465;28;20045;-65
2024/03/10 04:17:48;;;;;;;49.97;29.27;;;;;;;;;;5025373;28;20052;-65
2024/03/10 04:20:14;;;;;;;45.28;26.52;;;;;;;;;;5027155;28;20463;-65
2024/03/10 04:22:40;;;;;;;44.70;26.38;;;;;;;;;;5024073;28;20128;-65
2024/03/10 04:25:09;;;;;;;45.72;28.33;;;;;;;;;;5027442;28;20375;-65
2024/03/10 04:27:36;;;;;;;47.83;28.60;;;;;;;;;;5025855;28;20108;-65
2024/03/10 04:30:04;;;;;;;48.00;28.70;;;;;;;;;;5021541;28;20049;-65
2024/03/10 04:32:31;;;;;;;51.85;28.70;;;;;;;;;;5022681;28;20081;-65
2024/03/10 04:34:58;;;;;;;51.25;30.50;;;;;;;;;;5002394;28;20430;-65
2024/03/10 04:37:27;;;;;;;48.17;29.42;;;;;;;;;;5000765;28;20079;-65
2024/03/10 04:39:53;;;;;;;47.92;28.55;;;;;;;;;;5022999;28;20045;-65
2024/03/10 04:42:20;;;;;;;50.13;30.45;;;;;;;;;;5024603;28;20076;-65
2024/03/10 04:44:46;;;;;;;46.83;29.15;;;;;;;;;;5023841;28;20069;-65
2024/03/10 04:47:12;;;;;;;48.85;28.90;;;;;;;;;;5025062;28;20053;-66
2024/03/10 04:49:39;;;;;;;46.78;29.10;;;;;;;;;;5028021;28;20047;-66
2024/03/10 04:52:08;;;;;;;46.42;29.35;;;;;;;;;;5026929;28;20077;-66
2024/03/10 04:54:35;;;;;;;46.88;28.52;;;;;;;;;;5029319;28;20041;-66
2024/03/10 04:57:01;;;;;;;51.40;29.98;;;;;;;;;;5026969;28;21028;-66
2024/03/10 04:59:27;;;;;;;51.45;28.52;;;;;;;;;;5031811;28;20037;-66
2024/03/10 05:01:54;;;;;;;48.97;29.45;;;;;;;;;;5026814;28;20046;-66
2024/03/10 05:04:20;;;;;;;51.00;30.55;;;;;;;;;;5030061;28;20038;-66
2024/03/10 05:06:46;;;;;;;47.47;30.15;;;;;;;;;;5028853;28;21376;-66
2024/03/10 05:09:12;;;;;;;44.90;28.63;;;;;;;;;;5030154;28;20041;-66
2024/03/10 05:11:39;;;;;;;52.17;30.10;;;;;;;;;;5010077;28;20045;-66
2024/03/10 05:14:06;;;;;;;48.33;29.67;;;;;;;;;;5016054;28;20485;-66
2024/03/10 05:16:32;;;;;;;47.60;29.55;;;;;;;;;;5023611;28;20064;-65
2024/03/10 05:18:58;;;;;;;50.97;30.33;;;;;;;;;;5021279;28;20059;-65
2024/03/10 05:21:25;;;;;;;51.72;30.38;;;;;;;;;;5011336;28;20116;-65
2024/03/10 05:23:53;;;;;;;49.17;29.17;;;;;;;;;;5024787;28;20148;-65
2024/03/10 05:26:19;;;;;;;48.78;29.42;;;;;;;;;;5013539;28;20073;-65
2024/03/10 05:28:46;;;;;;;54.10;31.50;;;;;;;;;;5024521;28;20053;-66
2024/03/10 05:31:27;;;;;;;48.53;30.85;;;;;;;;;;5027787;28;20172;-65
2024/03/10 05:33:53;;;;;;;51.90;31.40;;;;;;;;;;5048467;28;20135;-65
2024/03/10 05:36:19;;;;;;;51.72;31.52;;;;;;;;;;5043446;28;20048;-65
2024/03/10 05:38:45;;;;;;;52.78;29.77;;;;;;;;;;5043669;28;20041;-65
2024/03/10 05:41:12;;;;;;;53.15;31.90;;;;;;;;;;5042015;28;20057;-65
2024/03/10 05:43:38;;;;;;;53.67;33.38;;;;;;;;;;5028647;28;20071;-65
2024/03/10 05:46:04;;;;;;;50.78;31.25;;;;;;;;;;5043399;28;20033;-65
2024/03/10 05:48:31;;;;;;;54.65;32.67;;;;;;;;;;5026688;28;20044;-65
2024/03/10 05:50:57;;;;;;;53.28;31.60;;;;;;;;;;5046392;28;20053;-65
2024/03/10 05:53:23;;;;;;;55.15;33.53;;;;;;;;;;5025371;28;20095;-65
2024/03/10 05:55:52;;;;;;;51.53;30.98;;;;;;;;;;5027973;28;20178;-65
2024/03/10 05:58:18;;;;;;;56.33;32.50;;;;;;;;;;5047495;28;20122;-65
2024/03/10 06:00:45;;;;;;;59.45;33.45;;;;;;;;;;5025788;28;20053;-66
2024/03/10 06:03:11;;;;;;;54.97;31.40;;;;;;;;;;5045915;28;20052;-66
2024/03/10 06:05:37;;;;;;;52.53;31.45;;;;;;;;;;5044821;28;20095;-66
2024/03/10 06:08:04;;;;;;;57.03;33.45;;;;;;;;;;5023923;28;20084;-66
2024/03/10 06:10:30;;;;;;;59.92;32.90;;;;;;;;;;5024710;28;20199;-66
2024/03/10 06:12:56;;;;;;;60.47;34.63;;;;;;;;;;5041589;28;20041;-66
2024/03/10 06:15:23;;;;;;;59.05;34.20;;;;;;;;;;5045051;28;20051;-66
2024/03/10 06:18:03;;;;;;;59.97;35.25;;;;;;;;;;5027321;28;20098;-66
2024/03/10 06:26:00;;;;;;;59.03;34.53;;;;;;;;;;5024873;28;20259;-66
2024/03/10 06:28:27;;;;;;;58.22;34.05;;;;;;;;;;5026030;28;20120;-66
2024/03/10 06:30:58;;;;;;;54.55;33.53;;;;;;;;;;5020649;28;20061;-66
2024/03/10 06:33:24;;;;;;;55.50;33.78;;;;;;;;;;5019770;28;20042;-66
2024/03/10 06:35:51;;;;;;;60.65;33.80;;;;;;;;;;5023570;28;20045;-66
2024/03/10 06:38:18;;;;;;;62.22;35.00;;;;;;;;;;5022999;28;20095;-66
2024/03/10 06:40:44;;;;;;;58.00;33.97;;;;;;;;;;5024655;28;20101;-66
2024/03/10 06:43:11;;;;;;;58.10;35.25;;;;;;;;;;5021806;28;20049;-68
2024/03/10 06:45:37;;;;;;;62.03;35.28;;;;;;;;;;5022324;28;20416;-65
2024/03/10 06:48:03;;;;;;;60.63;34.78;;;;;;;;;;5022322;28;20048;-68
2024/03/10 06:50:31;;;;;;;64.43;34.72;;;;;;;;;;5021222;28;20104;-66
2024/03/10 06:52:58;;;;;;;61.38;35.08;;;;;;;;;;5015218;28;20547;-66
2024/03/10 06:55:24;;;;;;;68.00;37.08;;;;;;;;;;5018320;28;20128;-66
2024/03/10 06:57:50;;;;;;;61.60;35.30;;;;;;;;;;5016210;28;20060;-66
2024/03/10 07:00:20;;;;;;;63.55;35.85;;;;;;;;;;5019103;28;20583;-65
2024/03/10 07:02:47;;;;;;;60.03;35.47;;;;;;;;;;5025599;28;20052;-65
2024/03/10 07:05:14;;;;;;;65.03;36.88;;;;;;;;;;5020047;28;20486;-65
2024/03/10 07:07:41;;;;;;;63.47;34.80;;;;;;;;;;5021067;28;20084;-65
2024/03/10 07:10:09;;;;;;;64.50;36.63;;;;;;;;;;5029424;28;20053;-65
2024/03/10 07:12:36;;;;;;;66.22;37.03;;;;;;;;;;5021216;28;20061;-66
2024/03/10 07:15:02;;;;;;;61.83;35.35;;;;;;;;;;5027546;28;20212;-65
2024/03/10 07:17:28;;;;;;;61.25;34.75;;;;;;;;;;5023200;28;20096;-65
2024/03/10 07:19:54;;;;;;;60.78;34.35;;;;;;;;;;5027822;28;20484;-65
2024/03/10 07:22:21;;;;;;;62.15;34.28;;;;;;;;;;5026438;28;20505;-65
2024/03/10 07:24:47;;;;;;;58.35;34.38;;;;;;;;;;5023008;28;20045;-63
2024/03/10 07:27:13;;;;;;;61.00;34.72;;;;;;;;;;5024836;28;20087;-65
2024/03/10 07:29:40;;;;;;;67.35;37.22;;;;;;;;;;5031994;28;20048;-65
2024/03/10 07:32:06;;;;;;;63.85;35.65;;;;;;;;;;5032045;28;20071;-65
2024/03/10 07:34:32;;;;;;;63.35;35.80;;;;;;;;;;5043439;28;20036;-65
2024/03/10 07:37:00;;;;;;;60.40;35.38;;;;;;;;;;5028798;28;20049;-65
2024/03/10 07:39:26;;;;;;;63.42;34.92;;;;;;;;;;5049103;28;20048;-65
2024/03/10 07:41:52;;;;;;;64.20;36.47;;;;;;;;;;5031154;28;20120;-65
2024/03/10 07:44:19;;;;;;;60.25;33.25;;;;;;;;;;5033907;28;20075;-65
2024/03/10 07:46:45;;;;;;;60.63;33.40;;;;;;;;;;5009225;28;20107;-65
2024/03/10 07:49:11;;;;;;;61.60;33.58;;;;;;;;;;5050352;28;20485;-65
2024/03/10 07:51:37;;;;;;;57.33;33.00;;;;;;;;;;5053797;28;20080;-65
2024/03/10 07:54:04;;;;;;;59.13;31.88;;;;;;;;;;5030552;28;20502;-66
2024/03/10 07:56:30;;;;;;;62.08;33.70;;;;;;;;;;5051518;28;20044;-66
2024/03/10 07:58:56;;;;;;;55.75;31.65;;;;;;;;;;5030283;28;20041;-66
2024/03/10 08:01:22;;;;;;;63.42;34.00;;;;;;;;;;5034137;28;20049;-66
2024/03/10 08:03:50;;;;;;;57.22;33.22;;;;;;;;;;5027982;28;20044;-66
2024/03/10 08:06:16;;;;;;;59.10;31.63;;;;;;;;;;5046169;28;20075;-64
2024/03/10 08:08:42;;;;;;;57.88;30.73;;;;;;;;;;5050151;28;20135;-66
2024/03/10 08:11:09;;;;;;;61.42;34.03;;;;;;;;;;5052875;28;20044;-65
2024/03/10 08:13:35;;;;;;;63.75;33.03;;;;;;;;;;5034712;28;20036;-64
2024/03/10 08:16:01;;;;;;;59.17;32.10;;;;;;;;;;5051026;28;20382;-65
2024/03/10 08:18:28;;;;;;;64.82;34.83;;;;;;;;;;5017149;28;20532;-65
2024/03/10 08:20:54;;;;;;;60.90;34.30;;;;;;;;;;5027818;28;20104;-64
2024/03/10 08:23:20;;;;;;;58.38;32.15;;;;;;;;;;5033972;28;20037;-64
2024/03/10 08:25:48;;;;;;;62.08;33.72;;;;;;;;;;5049798;28;20085;-64
2024/03/10 08:28:15;;;;;;;60.13;33.90;;;;;;;;;;5032410;28;20140;-64
2024/03/10 08:30:41;;;;;;;55.45;30.70;;;;;;;;;;5032401;28;20048;-64
2024/03/10 08:33:08;;;;;;;66.03;32.80;;;;;;;;;;5033142;28;20053;-64
2024/03/10 08:35:34;;;;;;;55.85;32.40;;;;;;;;;;5049271;28;20033;-63
2024/03/10 08:38:00;;;;;;;63.70;34.83;;;;;;;;;;5033577;28;20071;-65
2024/03/10 08:40:26;;;;;;;56.60;32.13;;;;;;;;;;5051691;28;20659;-64
2024/03/10 08:42:53;;;;;;;57.17;36.38;;;;;;;;;;5045864;28;20045;-65
2024/03/10 08:45:19;;;;;;;67.10;36.10;;;;;;;;;;5016739;28;20045;-65
2024/03/10 08:47:46;;;;;;;62.22;33.83;;;;;;;;;;5030148;28;20049;-65
2024/03/10 08:50:14;;;;;;;59.60;34.83;;;;;;;;;;5037047;28;20045;-65
2024/03/10 08:52:40;;;;;;;56.78;31.63;;;;;;;;;;5032084;28;20065;-65
2024/03/10 08:55:07;;;;;;;59.05;35.25;;;;;;;;;;5034819;28;20045;-65
2024/03/10 08:57:35;;;;;;;56.00;33.85;;;;;;;;;;5050736;28;20102;-65
2024/03/10 09:00:02;;;;;;;64.25;34.70;;;;;;;;;;5048304;28;20519;-65
2024/03/10 09:02:28;;;;;;;61.97;32.78;;;;;;;;;;5031229;28;20710;-65
2024/03/10 09:04:54;;;;;;;57.60;33.88;;;;;;;;;;5043372;28;20053;-65
2024/03/10 09:07:21;;;;;;;59.75;33.70;;;;;;;;;;5046455;28;20564;-65
2024/03/10 09:09:48;;;;;;;56.03;32.70;;;;;;;;;;5027801;28;20378;-65
2024/03/10 09:12:14;;;;;;;63.58;34.15;;;;;;;;;;5047486;28;20127;-65
2024/03/10 09:14:40;;;;;;;56.05;33.38;;;;;;;;;;5048240;28;20044;-65
2024/03/10 09:17:07;;;;;;;57.10;33.55;;;;;;;;;;5044787;28;20111;-64
2024/03/10 09:19:33;;;;;;;57.25;35.30;;;;;;;;;;5051277;28;20123;-65
2024/03/10 09:21:59;;;;;;;56.22;32.72;;;;;;;;;;5048116;28;20074;-65
2024/03/10 09:24:26;;;;;;;56.72;35.20;;;;;;;;;;5056046;28;20101;-66
2024/03/10 09:26:56;;;;;;;56.08;33.83;;;;;;;;;;5028539;28;20185;-65
2024/03/10 09:29:26;;;;;;;57.08;34.20;;;;;;;;;;5047378;28;20033;-65
2024/03/10 09:31:55;;;;;;;56.90;33.92;;;;;;;;;;5026848;28;20096;-65
2024/03/10 09:34:23;;;;;;;58.85;35.05;;;;;;;;;;5028786;28;20497;-65
2024/03/10 09:36:49;;;;;;;52.83;32.88;;;;;;;;;;5029239;28;20049;-65
2024/03/10 09:39:15;;;;;;;59.90;35.60;;;;;;;;;;5025160;28;20037;-65
2024/03/10 09:41:42;;;;;;;56.47;35.00;;;;;;;;;;5029430;28;20416;-65
2024/03/10 09:44:13;;;;;;;56.20;33.47;;;;;;;;;;5029763;28;20041;-65
2024/03/10 09:46:40;;;;;;;52.33;32.67;;;;;;;;;;5024230;28;20179;-66
2024/03/10 09:49:07;;;;;;;54.08;33.85;;;;;;;;;;5025283;28;20033;-65
2024/03/10 09:51:34;;;;;;;53.20;33.10;;;;;;;;;;5029334;28;20155;-66
2024/03/10 09:54:02;;;;;;;53.10;33.63;;;;;;;;;;5027947;28;20029;-65
2024/03/10 09:56:29;;;;;;;55.92;33.40;;;;;;;;;;5027113;28;20049;-65
2024/03/10 09:59:00;;;;;;;53.40;33.83;;;;;;;;;;5029153;28;20049;-66
2024/03/10 10:01:27;;;;;;;55.75;34.25;;;;;;;;;;5026531;28;20189;-66
2024/03/10 10:03:54;;;;;;;49.72;31.55;;;;;;;;;;5029562;28;20045;-65
2024/03/10 10:06:21;;;;;;;51.53;32.90;;;;;;;;;;5025602;28;20060;-65
2024/03/10 10:08:54;;;;;;;54.25;33.67;;;;;;;;;;5032102;28;20393;-65
2024/03/10 10:11:23;;;;;;;51.53;32.70;;;;;;;;;;5029197;28;20037;-65
2024/03/10 10:14:06;;;;;;;56.20;34.78;;;;;;;;;;5026340;28;20060;-65
2024/03/10 10:16:33;;;;;;;50.30;31.67;;;;;;;;;;5026019;28;20375;-65
2024/03/10 10:19:02;;;;;;;51.35;33.75;;;;;;;;;;5028819;28;20053;-67
2024/03/10 10:21:28;;;;;;;49.40;33.33;;;;;;;;;;5026907;28;20048;-66
2024/03/10 10:23:56;;;;;;;47.65;32.38;;;;;;;;;;5028150;28;20053;-65
2024/03/10 10:26:22;;;;;;;52.85;33.97;;;;;;;;;;5026455;28;20045;-65
2024/03/10 10:29:02;;;;;;;49.50;32.33;;;;;;;;;;5026130;28;20106;-66
2024/03/10 10:31:28;;;;;;;49.42;33.97;;;;;;;;;;5028734;28;20146;-66
2024/03/10 10:33:55;;;;;;;49.65;33.00;;;;;;;;;;5016086;28;20433;-65
2024/03/10 10:36:21;;;;;;;47.45;32.05;;;;;;;;;;5019429;28;20687;-66
2024/03/10 10:38:49;;;;;;;50.00;32.45;;;;;;;;;;5024638;28;20046;-66
2024/03/10 10:41:16;;;;;;;47.30;32.13;;;;;;;;;;5021721;28;20087;-66
2024/03/10 10:43:45;;;;;;;51.50;34.08;;;;;;;;;;5020031;28;20172;-66
2024/03/10 10:46:12;;;;;;;49.90;34.33;;;;;;;;;;5022034;28;20052;-67
2024/03/10 10:48:39;;;;;;;52.88;34.72;;;;;;;;;;5020219;28;20034;-66
2024/03/10 10:51:07;;;;;;;48.55;33.42;;;;;;;;;;5017839;28;20069;-67
2024/03/10 10:53:34;;;;;;;46.28;32.53;;;;;;;;;;5015093;28;21482;-67
2024/03/10 10:56:01;;;;;;;48.88;32.55;;;;;;;;;;5019676;28;20045;-66
2024/03/10 10:58:31;;;;;;;49.08;33.50;;;;;;;;;;5016185;28;20511;-66
2024/03/10 11:01:00;;;;;;;46.95;31.77;;;;;;;;;;5024671;28;20047;-67
2024/03/10 11:03:29;;;;;;;47.80;31.92;;;;;;;;;;5020655;28;20141;-67
2024/03/10 11:06:02;;;;;;;49.75;31.85;;;;;;;;;;5017888;28;20061;-66
2024/03/10 11:08:29;;;;;;;50.13;33.35;;;;;;;;;;5022128;28;20053;-66
2024/03/10 11:10:55;;;;;;;44.40;30.73;;;;;;;;;;5017014;28;20049;-66
2024/03/10 11:13:22;;;;;;;47.10;31.33;;;;;;;;;;5021630;28;21062;-66
2024/03/10 11:16:05;;;;;;;46.25;31.67;;;;;;;;;;5026947;28;20065;-66
2024/03/10 11:18:33;;;;;;;44.23;31.10;;;;;;;;;;5020793;28;20037;-66
2024/03/10 11:21:00;;;;;;;48.95;32.75;;;;;;;;;;5022935;28;20076;-66
2024/03/10 11:23:40;;;;;;;45.25;31.25;;;;;;;;;;5022708;28;20519;-66
2024/03/10 11:26:07;;;;;;;48.55;33.28;;;;;;;;;;5023578;28;20048;-66
2024/03/10 11:28:50;;;;;;;48.65;31.80;;;;;;;;;;5021255;28;20147;-66
2024/03/10 11:31:20;;;;;;;41.03;30.13;;;;;;;;;;5019211;28;20076;-66
2024/03/10 11:33:48;;;;;;;45.20;31.83;;;;;;;;;;5020912;28;20042;-66
2024/03/10 11:36:15;;;;;;;44.80;31.10;;;;;;;;;;5022708;28;20052;-66
2024/03/10 11:38:42;;;;;;;44.72;33.53;;;;;;;;;;5024419;28;20478;-66
2024/03/10 11:41:09;;;;;;;39.38;30.38;;;;;;;;;;5039427;28;20517;-67
2024/03/10 11:43:36;;;;;;;40.72;30.80;;;;;;;;;;5021491;28;20064;-66
2024/03/10 11:46:04;;;;;;;40.28;30.63;;;;;;;;;;5020542;28;20475;-64
2024/03/10 11:48:31;;;;;;;39.28;30.48;;;;;;;;;;5023880;28;20041;-64
2024/03/10 11:50:58;;;;;;;39.45;30.60;;;;;;;;;;5022767;28;20052;-66
2024/03/10 11:53:26;;;;;;;39.70;29.67;;;;;;;;;;5024038;28;20084;-64
2024/03/10 11:55:57;;;;;;;41.00;29.98;;;;;;;;;;5019421;28;20045;-64
2024/03/10 11:58:23;;;;;;;40.00;31.25;;;;;;;;;;5020521;28;20121;-64
2024/03/10 12:00:49;;;;;;;41.88;30.27;;;;;;;;;;5024196;28;20446;-65
2024/03/10 12:03:18;;;;;;;36.60;28.35;;;;;;;;;;5026044;28;20098;-65
2024/03/10 12:05:44;;;;;;;41.72;30.67;;;;;;;;;;5033247;28;20099;-65
2024/03/10 12:08:10;;;;;;;43.38;32.05;;;;;;;;;;5036023;28;20489;-65
2024/03/10 12:10:36;;;;;;;41.45;31.05;;;;;;;;;;5033299;28;20037;-65
2024/03/10 12:13:02;;;;;;;41.47;29.92;;;;;;;;;;5033498;28;20052;-65
2024/03/10 12:15:29;;;;;;;40.15;29.02;;;;;;;;;;5035642;28;20124;-65
2024/03/10 12:18:00;;;;;;;39.72;29.67;;;;;;;;;;5036095;28;20076;-66
2024/03/10 12:20:27;;;;;;;40.72;30.65;;;;;;;;;;5029776;28;20049;-65
2024/03/10 12:22:55;;;;;;;40.60;30.38;;;;;;;;;;5030460;28;20040;-65
2024/03/10 12:25:22;;;;;;;39.20;29.83;;;;;;;;;;5032085;28;20038;-65
2024/03/10 12:27:49;;;;;;;40.28;30.25;;;;;;;;;;5034586;28;20436;-65
2024/03/10 12:30:16;;;;;;;40.90;29.73;;;;;;;;;;5031535;28;20096;-65
2024/03/10 12:32:52;;;;;;;39.42;29.48;;;;;;;;;;5030036;28;20065;-65
2024/03/10 12:35:19;;;;;;;38.92;28.38;;;;;;;;;;5033062;28;20136;-65
2024/03/10 12:37:46;;;;;;;41.78;30.55;;;;;;;;;;5032842;28;20049;-66
2024/03/10 12:40:15;;;;;;;39.53;28.85;;;;;;;;;;5039684;28;20059;-65
2024/03/10 12:42:43;;;;;;;36.10;27.65;;;;;;;;;;5033865;28;20132;-66
2024/03/10 12:45:10;;;;;;;39.65;29.60;;;;;;;;;;5030265;28;20068;-65
2024/03/10 12:47:36;;;;;;;36.28;28.60;;;;;;;;;;5032597;28;20037;-66
2024/03/10 12:50:07;;;;;;;37.40;29.63;;;;;;;;;;5033364;28;20067;-65
2024/03/10 12:52:34;;;;;;;40.17;27.85;;;;;;;;;;5027714;28;20068;-66
2024/03/10 12:55:00;;;;;;;36.63;28.42;;;;;;;;;;5029006;28;20121;-66
2024/03/10 12:57:27;;;;;;;35.55;26.70;;;;;;;;;;5029787;28;20068;-65
2024/03/10 12:59:53;;;;;;;37.13;28.35;;;;;;;;;;5009135;28;20037;-66
2024/03/10 13:02:19;;;;;;;38.47;29.38;;;;;;;;;;5028072;28;20069;-65
2024/03/10 13:04:48;;;;;;;38.50;28.55;;;;;;;;;;5024964;28;20128;-65
2024/03/10 13:07:16;;;;;;;34.33;26.55;;;;;;;;;;5020836;28;20053;-66
2024/03/10 13:09:42;;;;;;;36.83;27.27;;;;;;;;;;5026289;28;20086;-65
2024/03/10 13:12:08;;;;;;;37.50;28.42;;;;;;;;;;5023791;28;20103;-65
2024/03/10 13:14:34;;;;;;;35.88;27.55;;;;;;;;;;5027766;28;20195;-65
2024/03/10 13:17:03;;;;;;;38.13;27.52;;;;;;;;;;5024224;28;20477;-66
2024/03/10 13:19:29;;;;;;;35.45;26.35;;;;;;;;;;5024666;28;21337;-66
2024/03/10 13:21:55;;;;;;;33.45;26.48;;;;;;;;;;5024253;28;20046;-65
2024/03/10 13:24:23;;;;;;;35.22;27.15;;;;;;;;;;5023868;28;20451;-66
2024/03/10 13:26:49;;;;;;;37.85;28.27;;;;;;;;;;5026293;28;20045;-65
2024/03/10 13:29:16;;;;;;;34.65;25.67;;;;;;;;;;5024020;28;20584;-66
2024/03/10 13:31:42;;;;;;;34.15;26.38;;;;;;;;;;5021361;28;20171;-66
2024/03/10 13:34:09;;;;;;;35.30;26.13;;;;;;;;;;5023569;28;20143;-86
2024/03/10 13:36:35;;;;;;;35.67;27.90;;;;;;;;;;5026181;28;20098;-67
2024/03/10 13:39:03;;;;;;;37.78;26.25;;;;;;;;;;5023740;28;20049;-66
2024/03/10 13:41:29;;;;;;;33.53;26.77;;;;;;;;;;5026865;28;20068;-67
2024/03/10 13:43:56;;;;;;;35.38;27.13;;;;;;;;;;5019781;28;20041;-67
2024/03/10 13:46:22;;;;;;;33.70;25.55;;;;;;;;;;5025126;28;20045;-66
2024/03/10 13:48:49;;;;;;;34.38;26.58;;;;;;;;;;5022907;28;20041;-67
2024/03/10 13:51:16;;;;;;;35.72;26.88;;;;;;;;;;5025848;28;20120;-66
2024/03/10 13:53:42;;;;;;;37.83;27.67;;;;;;;;;;5027710;28;20045;-66
2024/03/10 13:56:10;;;;;;;37.47;26.63;;;;;;;;;;5023860;28;20548;-66
2024/03/10 13:58:37;;;;;;;40.08;28.83;;;;;;;;;;5023954;28;20043;-66
2024/03/10 14:01:05;;;;;;;38.15;27.67;;;;;;;;;;5022499;28;20116;-66
2024/03/10 14:03:32;;;;;;;37.05;26.23;;;;;;;;;;5022776;28;20065;-65
2024/03/10 14:05:58;;;;;;;37.90;27.48;;;;;;;;;;5021184;28;20088;-65
2024/03/10 14:08:25;;;;;;;37.85;27.92;;;;;;;;;;5021356;28;20077;-65
2024/03/10 14:10:51;;;;;;;36.50;27.27;;;;;;;;;;5024870;28;20397;-66
2024/03/10 14:13:17;;;;;;;33.90;27.80;;;;;;;;;;5022531;28;20477;-66
2024/03/10 14:15:43;;;;;;;35.28;27.75;;;;;;;;;;5027980;28;20087;-66
2024/03/10 14:18:11;;;;;;;34.13;25.88;;;;;;;;;;5022920;28;20045;-66
2024/03/10 14:20:39;;;;;;;32.85;25.17;;;;;;;;;;5019665;28;20140;-66
2024/03/10 14:23:05;;;;;;;34.55;25.02;;;;;;;;;;5024929;28;20060;-66
2024/03/10 14:25:31;;;;;;;33.33;25.05;;;;;;;;;;5022931;28;20136;-65
2024/03/10 14:27:58;;;;;;;32.13;24.65;;;;;;;;;;5013689;28;20164;-66
2024/03/10 14:30:26;;;;;;;34.50;25.40;;;;;;;;;;5015184;28;20336;-66
2024/03/10 14:32:53;;;;;;;37.40;27.50;;;;;;;;;;5015233;28;20488;-66